Terminal Aerodrome Forecast
Issued by NWS

Home | Current Version | Previous Version | Text Only | Print | Product List | Glossary On
Versions: 1 2 3 4 5 6 7 8 9 10 11 12 13 14
000
FTUS43 KIND 162330
TAFHUF
TAF
KHUF 162330Z 1700/1724 19011KT P6SM SKC
     FM171500 19006KT P6SM -SHRA OVC080
     FM171800 21006KT P6SM OVC050
     FM172100 19005KT P6SM OVC025=

USA.gov is the U.S. government's official web portal to all federal, state and local government web resources and services.